Time;durP1;ratioP1;P1;durP2;ratioP2;P2;SDS_P1;SDS_P2;PMS_P1;PMS_P2;Temp;Humidity;BMP_temperature;BMP_pressure;BME280_temperature;BME280_humidity;BME280_pressure;Samples;Min_cycle;Max_cycle;Signal;HPM_P1;HPM_P2
2022/08/14 00:00:12;;;;;;;2.90;2.60;;;21.60;99.90;;;;;;5062340;28;20738;-47
2022/08/14 00:02:43;;;;;;;3.57;3.20;;;21.50;99.90;;;;;;5059639;28;20934;-48
2022/08/14 00:05:12;;;;;;;3.47;2.30;;;21.50;99.90;;;;;;5062979;28;20210;-44
2022/08/14 00:07:39;;;;;;;4.67;2.67;;;21.50;99.90;;;;;;5059390;28;20655;-46
2022/08/14 00:10:10;;;;;;;2.87;2.60;;;21.50;99.90;;;;;;5063472;28;20222;-45
2022/08/14 00:12:39;;;;;;;3.67;2.60;;;21.50;99.90;;;;;;5058509;28;20217;-50
2022/08/14 00:15:10;;;;;;;3.17;2.93;;;21.40;99.90;;;;;;5064299;28;20701;-44
2022/08/14 00:17:37;;;;;;;3.00;2.80;;;21.30;99.90;;;;;;5063662;28;20732;-46
2022/08/14 00:20:08;;;;;;;2.63;2.40;;;21.30;99.90;;;;;;5066724;28;20271;-45
2022/08/14 00:22:35;;;;;;;3.03;2.73;;;21.30;99.90;;;;;;5072177;28;20207;-45
2022/08/14 00:25:02;;;;;;;3.07;2.70;;;21.30;99.90;;;;;;5068384;28;20221;-45
2022/08/14 00:27:29;;;;;;;2.90;2.70;;;21.30;99.90;;;;;;5060656;28;20221;-48
2022/08/14 00:29:55;;;;;;;3.10;2.80;;;21.20;99.90;;;;;;5072160;28;20391;-45
2022/08/14 00:32:22;;;;;;;2.80;2.57;;;21.20;99.90;;;;;;5068507;28;20712;-45
2022/08/14 00:34:49;;;;;;;2.97;2.70;;;21.30;99.90;;;;;;5063026;28;20198;-45
2022/08/14 00:37:17;;;;;;;2.70;2.50;;;21.20;99.90;;;;;;5066893;28;20670;-45
2022/08/14 00:39:44;;;;;;;2.90;2.67;;;21.20;99.90;;;;;;5063155;28;20218;-45
2022/08/14 00:42:11;;;;;;;2.90;2.70;;;21.20;99.90;;;;;;5067416;28;20598;-45
2022/08/14 00:44:38;;;;;;;3.33;2.83;;;21.20;99.90;;;;;;5064342;28;20218;-46
2022/08/14 00:47:08;;;;;;;4.03;2.80;;;21.10;99.90;;;;;;5070741;28;20221;-44
2022/08/14 00:49:35;;;;;;;3.47;2.47;;;21.10;99.90;;;;;;5064269;28;20246;-47
2022/08/14 00:52:04;;;;;;;3.07;2.77;;;21.10;99.90;;;;;;5065263;28;20195;-44
2022/08/14 00:54:32;;;;;;;3.00;2.77;;;21.10;99.90;;;;;;5075106;28;20256;-47
2022/08/14 00:56:59;;;;;;;3.97;2.60;;;21.10;99.90;;;;;;5066450;28;20210;-45
2022/08/14 00:59:28;;;;;;;2.97;2.77;;;21.10;99.90;;;;;;5059934;28;20225;-45
2022/08/14 01:01:57;;;;;;;2.93;2.73;;;21.10;99.90;;;;;;5070026;28;20193;-48
2022/08/14 01:04:24;;;;;;;2.70;2.50;;;21.10;99.90;;;;;;5065181;28;20285;-49
2022/08/14 01:06:52;;;;;;;4.03;2.73;;;21.10;99.90;;;;;;5080408;28;20196;-47
2022/08/14 01:09:21;;;;;;;3.03;2.80;;;21.10;99.90;;;;;;5070211;28;20214;-45
2022/08/14 01:11:50;;;;;;;2.93;2.70;;;21.00;99.90;;;;;;5082438;28;20263;-45
2022/08/14 01:14:17;;;;;;;3.53;2.57;;;21.00;99.90;;;;;;5059522;28;20198;-46
2022/08/14 01:16:45;;;;;;;3.50;3.20;;;21.00;99.90;;;;;;5057041;28;20795;-46
2022/08/14 01:21:58;;;;;;;5.50;2.70;;;21.00;99.90;;;;;;5063241;28;20243;-44
2022/08/14 01:24:27;;;;;;;3.23;2.93;;;21.00;99.90;;;;;;5062862;28;20672;-46
2022/08/14 01:26:53;;;;;;;2.63;2.43;;;21.00;99.90;;;;;;5063376;28;20187;-46
2022/08/14 01:29:20;;;;;;;4.70;2.77;;;21.00;99.90;;;;;;5065655;28;20230;-44
2022/08/14 01:31:48;;;;;;;2.63;2.23;;;21.00;99.90;;;;;;5051881;28;20277;-47
2022/08/14 01:34:15;;;;;;;3.67;2.77;;;21.00;99.90;;;;;;5076553;28;20198;-44
2022/08/14 01:36:42;;;;;;;2.70;2.50;;;20.90;99.90;;;;;;5072142;28;21024;-45
2022/08/14 01:39:12;;;;;;;2.67;2.47;;;20.90;99.90;;;;;;5076075;28;20214;-45
2022/08/14 01:41:39;;;;;;;2.93;2.73;;;21.00;99.90;;;;;;5065039;28;20202;-46
2022/08/14 01:44:11;;;;;;;2.77;2.30;;;21.00;99.90;;;;;;5064996;28;20214;-44
2022/08/14 01:46:40;;;;;;;3.37;2.77;;;20.90;99.90;;;;;;5054007;28;20210;-47
2022/08/14 01:49:10;;;;;;;3.40;2.50;;;21.00;99.90;;;;;;5075555;28;20695;-44
2022/08/14 01:51:38;;;;;;;3.37;2.90;;;20.90;99.90;;;;;;5062040;28;20316;-48
2022/08/14 01:54:08;;;;;;;2.97;2.60;;;20.90;99.90;;;;;;5072929;28;20187;-45
2022/08/14 01:56:38;;;;;;;2.60;2.40;;;21.00;99.90;;;;;;5063627;28;20567;-50
2022/08/14 01:59:07;;;;;;;2.90;2.70;;;20.90;99.90;;;;;;5065675;28;20223;-48
2022/08/14 02:01:36;;;;;;;6.47;3.70;;;20.90;99.90;;;;;;5054623;28;20667;-49
2022/08/14 02:04:04;;;;;;;3.30;2.73;;;20.90;99.90;;;;;;5070549;28;20199;-46
2022/08/14 02:06:30;;;;;;;3.00;2.30;;;20.90;99.90;;;;;;5069603;28;20194;-48
2022/08/14 02:08:58;;;;;;;4.30;2.50;;;20.90;99.90;;;;;;5063397;28;20210;-45
2022/08/14 02:11:25;;;;;;;2.80;2.60;;;20.80;99.90;;;;;;5064789;28;20199;-48
2022/08/14 02:13:58;;;;;;;5.63;3.23;;;20.80;99.90;;;;;;5061888;28;20190;-44
2022/08/14 02:16:28;;;;;;;3.00;2.80;;;20.90;99.90;;;;;;5060863;28;20199;-49
2022/08/14 02:18:57;;;;;;;4.17;2.40;;;20.80;99.90;;;;;;5074969;28;20217;-44
2022/08/14 02:21:27;;;;;;;3.00;2.70;;;20.80;99.90;;;;;;5067652;28;20199;-50
2022/08/14 02:23:55;;;;;;;5.53;2.63;;;20.80;99.90;;;;;;5075301;28;20207;-44
2022/08/14 02:26:25;;;;;;;3.70;2.87;;;20.80;99.90;;;;;;5072566;28;20205;-48
2022/08/14 02:28:58;;;;;;;2.60;2.50;;;20.80;99.90;;;;;;5068000;28;20210;-46
2022/08/14 02:31:28;;;;;;;2.53;2.37;;;20.80;99.90;;;;;;5059695;28;20293;-47
2022/08/14 02:33:55;;;;;;;4.70;2.97;;;20.80;99.90;;;;;;5068624;28;20190;-45
2022/08/14 02:36:23;;;;;;;2.83;2.63;;;20.80;99.90;;;;;;5065960;28;20221;-47
2022/08/14 02:38:50;;;;;;;3.47;3.10;;;20.80;99.90;;;;;;5061253;28;20453;-45
2022/08/14 02:41:16;;;;;;;3.30;3.00;;;20.80;99.90;;;;;;5065171;28;20205;-44
2022/08/14 02:43:44;;;;;;;3.60;3.10;;;20.80;99.90;;;;;;5059758;28;20962;-44
2022/08/14 02:46:12;;;;;;;4.23;2.70;;;20.80;99.90;;;;;;5064892;28;20206;-46
2022/08/14 02:48:40;;;;;;;3.03;2.83;;;20.80;99.90;;;;;;5057164;28;20574;-46
2022/08/14 02:51:11;;;;;;;3.03;2.83;;;20.70;99.90;;;;;;5070734;28;20198;-47
2022/08/14 02:53:40;;;;;;;4.10;2.77;;;20.70;99.90;;;;;;5060136;28;20659;-45
2022/08/14 02:56:09;;;;;;;7.17;2.83;;;20.70;99.90;;;;;;5078636;28;20204;-51
2022/08/14 02:58:39;;;;;;;2.60;2.43;;;20.70;99.90;;;;;;5063659;28;20219;-45
2022/08/14 03:01:07;;;;;;;5.43;2.73;;;20.70;99.90;;;;;;5064441;28;20195;-47
2022/08/14 03:03:36;;;;;;;5.40;3.00;;;20.70;99.90;;;;;;5051314;28;20211;-47
2022/08/14 03:06:04;;;;;;;3.30;2.53;;;20.70;99.90;;;;;;5070843;28;20552;-45
2022/08/14 03:08:32;;;;;;;3.30;3.03;;;20.60;99.90;;;;;;5062005;28;20206;-45
2022/08/14 03:11:00;;;;;;;2.60;2.23;;;20.60;99.90;;;;;;5062977;28;20331;-45
2022/08/14 03:13:27;;;;;;;3.07;2.87;;;20.60;99.90;;;;;;5062306;28;20207;-44
2022/08/14 03:15:54;;;;;;;4.00;2.97;;;20.50;99.90;;;;;;5067614;28;20186;-45
2022/08/14 03:18:22;;;;;;;2.97;2.77;;;20.50;99.90;;;;;;5074021;28;20203;-45
2022/08/14 03:20:51;;;;;;;3.10;2.87;;;20.50;99.90;;;;;;5048444;28;20205;-44
2022/08/14 03:23:18;;;;;;;3.73;2.63;;;20.50;99.90;;;;;;5072693;28;20206;-50
2022/08/14 03:25:46;;;;;;;3.30;2.93;;;20.50;99.90;;;;;;5062001;28;20187;-45
2022/08/14 03:28:14;;;;;;;3.03;2.67;;;20.50;99.90;;;;;;5063291;28;20221;-46
2022/08/14 03:30:42;;;;;;;4.63;2.60;;;20.50;99.90;;;;;;5059358;28;20791;-44
2022/08/14 03:33:11;;;;;;;3.50;2.90;;;20.50;99.90;;;;;;5063177;28;20293;-44
2022/08/14 03:35:38;;;;;;;4.63;2.80;;;20.50;99.90;;;;;;5062504;28;20206;-45
2022/08/14 03:38:09;;;;;;;3.13;2.90;;;20.50;99.90;;;;;;5068134;28;20207;-45
2022/08/14 03:40:37;;;;;;;3.10;2.40;;;20.50;99.90;;;;;;5060758;28;20284;-46
2022/08/14 03:43:05;;;;;;;3.63;2.97;;;20.40;99.90;;;;;;5063487;28;20207;-47
2022/08/14 03:45:34;;;;;;;4.23;3.23;;;20.40;99.90;;;;;;5063004;28;20214;-44
2022/08/14 03:48:03;;;;;;;5.53;2.50;;;20.40;99.90;;;;;;5070021;28;20258;-45
2022/08/14 03:50:31;;;;;;;4.17;3.10;;;20.40;99.90;;;;;;5057046;28;20250;-46
2022/08/14 03:53:00;;;;;;;4.40;3.27;;;20.30;99.90;;;;;;5062208;28;20205;-48
2022/08/14 03:55:28;;;;;;;3.67;3.03;;;20.20;99.90;;;;;;5072011;28;20285;-44
2022/08/14 03:57:55;;;;;;;4.10;2.93;;;20.20;99.90;;;;;;5062031;28;20197;-48
2022/08/14 04:00:22;;;;;;;3.87;3.33;;;20.20;99.90;;;;;;5055701;28;20225;-46
2022/08/14 04:02:49;;;;;;;3.13;2.83;;;20.20;99.90;;;;;;5072184;28;20252;-46
2022/08/14 04:05:17;;;;;;;3.63;2.57;;;20.20;99.90;;;;;;5048462;28;20210;-46
2022/08/14 04:07:45;;;;;;;3.07;2.73;;;20.20;99.90;;;;;;5068924;28;20190;-45
2022/08/14 04:10:12;;;;;;;4.40;2.93;;;20.20;99.90;;;;;;5062845;28;20302;-46
2022/08/14 04:12:41;;;;;;;3.20;2.83;;;20.20;99.90;;;;;;5061073;28;20183;-46
2022/08/14 04:15:09;;;;;;;3.43;2.77;;;20.20;99.90;;;;;;5062405;28;20256;-49
2022/08/14 04:17:36;;;;;;;6.03;3.10;;;20.20;99.90;;;;;;5059804;28;20194;-45
2022/08/14 04:20:06;;;;;;;2.53;2.30;;;20.20;99.90;;;;;;5051556;28;20223;-49
2022/08/14 04:22:33;;;;;;;4.30;2.90;;;20.20;99.90;;;;;;5067764;28;20285;-48
2022/08/14 04:25:01;;;;;;;2.97;2.73;;;20.20;99.90;;;;;;5067870;28;20190;-45
2022/08/14 04:27:28;;;;;;;3.07;2.70;;;20.20;99.90;;;;;;5059328;28;20218;-47
2022/08/14 04:29:56;;;;;;;4.20;3.13;;;20.20;99.90;;;;;;5076494;28;20206;-45
2022/08/14 04:32:25;;;;;;;3.03;2.83;;;20.20;99.90;;;;;;5079051;28;20618;-45
2022/08/14 04:34:52;;;;;;;4.30;3.07;;;20.20;99.90;;;;;;5081860;28;20206;-45
2022/08/14 04:45:39;;;;;;;2.77;2.53;;;20.20;99.90;;;;;;5060055;28;20256;-45
2022/08/14 04:48:13;;;;;;;4.30;2.93;;;20.20;99.90;;;;;;5063526;28;20210;-45
2022/08/14 04:50:42;;;;;;;3.10;2.80;;;20.20;99.90;;;;;;5060819;28;20203;-47
2022/08/14 04:53:11;;;;;;;3.30;3.00;;;20.20;99.90;;;;;;5060411;28;20573;-45
2022/08/14 04:55:40;;;;;;;4.00;2.90;;;20.20;99.90;;;;;;5063260;28;20195;-45
2022/08/14 04:58:06;;;;;;;4.17;2.70;;;20.20;99.90;;;;;;5063519;28;20286;-45
2022/08/14 05:00:33;;;;;;;7.03;2.97;;;20.20;99.90;;;;;;5063204;28;20214;-47
2022/08/14 05:03:04;;;;;;;2.73;2.53;;;20.30;99.90;;;;;;5066820;28;20197;-47
2022/08/14 05:05:32;;;;;;;2.70;2.60;;;20.30;99.90;;;;;;5062401;28;20791;-45
2022/08/14 05:08:11;;;;;;;3.17;2.97;;;20.30;99.90;;;;;;5058672;28;20197;-45
2022/08/14 05:10:42;;;;;;;4.03;2.50;;;20.30;99.90;;;;;;5072295;28;20244;-47
2022/08/14 05:13:10;;;;;;;2.97;2.73;;;20.30;99.90;;;;;;5066368;28;20221;-48
2022/08/14 05:15:39;;;;;;;2.83;2.50;;;20.40;99.90;;;;;;5063599;28;20202;-45
2022/08/14 05:18:11;;;;;;;3.23;2.70;;;20.30;99.90;;;;;;5066727;28;20195;-44
2022/08/14 05:20:39;;;;;;;3.50;2.50;;;20.30;99.90;;;;;;5063322;28;20491;-45
2022/08/14 05:23:07;;;;;;;2.50;2.40;;;20.30;99.90;;;;;;5078200;28;20194;-42
2022/08/14 05:25:34;;;;;;;2.83;2.67;;;20.40;99.90;;;;;;5064993;28;20202;-46
2022/08/14 05:28:08;;;;;;;4.43;2.30;;;20.40;99.90;;;;;;5066521;28;20209;-46
2022/08/14 05:30:35;;;;;;;2.87;2.63;;;20.40;99.90;;;;;;5070240;28;20217;-46
2022/08/14 05:33:02;;;;;;;2.60;2.50;;;20.50;99.90;;;;;;5079504;28;20248;-48
2022/08/14 05:35:31;;;;;;;4.13;2.60;;;20.50;99.90;;;;;;5066345;28;20195;-41
2022/08/14 05:37:58;;;;;;;2.60;2.33;;;20.50;99.90;;;;;;5065778;28;20519;-47
2022/08/14 05:40:25;;;;;;;3.93;2.57;;;20.60;99.90;;;;;;5052297;28;20227;-49
2022/08/14 05:42:52;;;;;;;3.27;2.50;;;20.60;99.90;;;;;;5075991;28;20206;-43
2022/08/14 05:45:19;;;;;;;3.50;2.30;;;20.60;99.90;;;;;;5062681;28;20315;-44
2022/08/14 05:47:46;;;;;;;6.27;2.70;;;20.70;99.90;;;;;;5064687;28;20191;-45
2022/08/14 05:50:13;;;;;;;3.87;2.67;;;20.70;99.90;;;;;;5064389;28;20223;-44
2022/08/14 05:52:42;;;;;;;2.63;2.40;;;20.80;99.90;;;;;;5071437;28;20215;-46
2022/08/14 05:55:11;;;;;;;2.20;2.10;;;20.90;99.90;;;;;;5058771;28;20666;-43
2022/08/14 05:57:49;;;;;;;4.40;2.43;;;21.00;99.90;;;;;;5071301;28;20202;-46
2022/08/14 06:00:19;;;;;;;2.80;2.60;;;21.00;99.90;;;;;;5062652;28;20234;-42
2022/08/14 06:02:46;;;;;;;2.70;2.27;;;21.10;99.90;;;;;;5064271;28;20194;-43
2022/08/14 06:05:13;;;;;;;3.47;2.30;;;21.20;99.90;;;;;;5063724;28;20625;-46
2022/08/14 06:07:41;;;;;;;2.43;2.17;;;21.20;99.90;;;;;;5063050;28;20202;-45
2022/08/14 06:10:10;;;;;;;6.77;2.40;;;21.30;99.90;;;;;;5056156;28;20709;-46
2022/08/14 06:12:38;;;;;;;3.10;2.07;;;21.40;99.90;;;;;;5067622;28;20229;-45
2022/08/14 06:15:06;;;;;;;4.83;2.40;;;21.40;99.90;;;;;;5067586;28;20245;-47
2022/08/14 06:17:43;;;;;;;4.73;2.23;;;21.50;99.90;;;;;;5063257;28;20197;-43
2022/08/14 06:20:11;;;;;;;4.47;2.60;;;21.50;99.90;;;;;;5067786;28;20232;-47
2022/08/14 06:22:38;;;;;;;2.33;2.13;;;21.60;99.90;;;;;;5067854;28;20275;-46
2022/08/14 06:25:08;;;;;;;2.43;2.20;;;21.60;99.90;;;;;;5069783;28;20256;-48
2022/08/14 06:27:36;;;;;;;7.43;2.33;;;21.70;99.90;;;;;;5065496;28;20290;-47
2022/08/14 06:30:04;;;;;;;5.70;2.33;;;21.80;99.90;;;;;;5072006;28;20214;-47
2022/08/14 06:32:31;;;;;;;2.43;2.33;;;21.80;99.90;;;;;;5064892;28;20412;-43
2022/08/14 06:34:57;;;;;;;3.07;2.30;;;21.80;99.90;;;;;;5070195;28;20277;-44
2022/08/14 06:37:26;;;;;;;4.03;2.20;;;21.90;99.90;;;;;;5075823;28;20247;-46
2022/08/14 06:39:53;;;;;;;3.93;2.20;;;22.00;99.90;;;;;;5078815;28;20225;-44
2022/08/14 06:42:21;;;;;;;3.80;2.17;;;22.10;99.90;;;;;;5058017;28;20214;-46
2022/08/14 06:44:48;;;;;;;5.53;2.40;;;22.20;99.90;;;;;;5069131;28;20191;-46
2022/08/14 06:47:15;;;;;;;2.87;2.23;;;22.20;99.90;;;;;;5071727;28;20199;-44
2022/08/14 06:49:41;;;;;;;4.10;2.30;;;22.30;99.90;;;;;;5072190;28;20857;-43
2022/08/14 06:52:09;;;;;;;3.70;2.20;;;22.30;99.90;;;;;;5076067;28;20222;-44
2022/08/14 06:54:35;;;;;;;3.77;2.33;;;22.40;99.90;;;;;;5070296;28;20820;-47
2022/08/14 06:57:02;;;;;;;3.23;2.60;;;22.50;99.90;;;;;;5057967;28;20205;-42
2022/08/14 06:59:31;;;;;;;3.33;2.90;;;22.60;99.90;;;;;;5064501;28;20222;-41
2022/08/14 07:07:36;;;;;;;2.77;2.37;;;22.70;99.90;;;;;;5065419;28;20190;-42
2022/08/14 07:10:04;;;;;;;2.43;2.33;;;22.80;99.90;;;;;;5069692;28;20211;-45
2022/08/14 07:12:31;;;;;;;2.60;2.40;;;22.90;99.90;;;;;;5050608;28;20213;-60
2022/08/14 07:15:00;;;;;;;3.27;2.30;;;23.00;99.90;;;;;;5070970;28;20747;-60
2022/08/14 07:17:26;;;;;;;5.65;2.75;;;23.10;99.90;;;;;;5066549;28;20190;-60
2022/08/14 07:19:54;;;;;;;2.50;2.30;;;23.10;99.90;;;;;;5069231;28;20222;-60
2022/08/14 07:22:20;;;;;;;3.97;2.35;;;23.20;99.90;;;;;;5060336;28;20198;-60
2022/08/14 07:24:47;;;;;;;2.83;2.58;;;23.30;99.90;;;;;;5075207;28;20241;-41
2022/08/14 07:27:14;;;;;;;3.40;2.37;;;23.30;99.90;;;;;;5067793;28;20244;-44
2022/08/14 07:29:41;;;;;;;3.38;2.28;;;23.40;99.90;;;;;;5070265;28;20228;-41
2022/08/14 07:32:10;;;;;;;3.40;2.63;;;23.40;99.90;;;;;;5068287;28;20610;-41
2022/08/14 07:34:37;;;;;;;4.82;2.35;;;23.50;99.90;;;;;;5059766;28;20202;-42
2022/08/14 07:37:04;;;;;;;3.03;2.15;;;23.50;99.90;;;;;;5065072;28;20372;-44
2022/08/14 07:39:31;;;;;;;2.65;2.50;;;23.60;99.90;;;;;;5063517;28;20885;-42
2022/08/14 07:41:59;;;;;;;4.40;2.42;;;23.70;99.90;;;;;;5070639;28;20205;-40
2022/08/14 07:44:25;;;;;;;3.60;2.63;;;23.70;99.90;;;;;;5052881;28;20206;-47
2022/08/14 07:46:52;;;;;;;2.60;2.40;;;23.80;99.90;;;;;;5070945;28;20198;-41
2022/08/14 07:49:21;;;;;;;3.88;2.50;;;23.80;99.90;;;;;;5058859;28;20218;-47
2022/08/14 07:51:48;;;;;;;3.42;2.45;;;23.90;99.90;;;;;;5062821;28;20306;-42
2022/08/14 07:54:15;;;;;;;6.90;2.40;;;24.00;99.90;;;;;;5069550;28;20198;-44
2022/08/14 07:56:42;;;;;;;2.83;2.63;;;24.10;99.90;;;;;;5067343;28;20190;-45
2022/08/14 07:59:09;;;;;;;2.33;2.10;;;24.20;99.90;;;;;;5058780;28;20218;-47
2022/08/14 08:01:35;;;;;;;3.60;2.50;;;24.20;99.90;;;;;;5064887;28;20210;-42
2022/08/14 08:04:04;;;;;;;6.35;2.60;;;24.30;99.90;;;;;;5069346;28;20225;-43
2022/08/14 08:06:33;;;;;;;3.55;2.15;;;24.40;99.90;;;;;;5061506;28;20217;-43
2022/08/14 08:09:02;;;;;;;3.92;2.60;;;24.50;99.90;;;;;;5069343;28;20210;-46
2022/08/14 08:11:32;;;;;;;7.15;2.85;;;24.50;99.90;;;;;;5062981;28;20979;-42
2022/08/14 08:14:01;;;;;;;4.03;2.65;;;24.60;99.90;;;;;;5063698;28;20194;-44
2022/08/14 08:16:28;;;;;;;3.70;2.53;;;24.70;99.90;;;;;;5059540;28;20879;-42
2022/08/14 08:18:55;;;;;;;5.60;2.47;;;24.80;99.90;;;;;;5070643;28;20215;-42
2022/08/14 08:21:22;;;;;;;5.07;2.63;;;25.00;99.90;;;;;;5061454;28;20915;-41
2022/08/14 08:23:50;;;;;;;4.03;2.67;;;25.20;99.90;;;;;;5077450;28;20281;-43
2022/08/14 08:26:18;;;;;;;3.13;2.53;;;25.40;99.90;;;;;;5075185;28;20687;-43
2022/08/14 08:28:54;;;;;;;5.38;2.40;;;25.60;99.90;;;;;;5068925;28;20234;-41
2022/08/14 08:31:22;;;;;;;5.63;2.50;;;25.80;99.90;;;;;;5051370;28;20714;-45
2022/08/14 08:33:51;;;;;;;3.13;2.80;;;26.00;99.90;;;;;;5071590;28;20194;-45
2022/08/14 08:36:19;;;;;;;3.00;2.80;;;26.10;99.90;;;;;;5072431;28;20743;-44
2022/08/14 08:38:48;;;;;;;4.25;2.60;;;26.20;99.80;;;;;;5072312;28;20341;-43
2022/08/14 08:41:17;;;;;;;7.72;3.03;;;26.30;99.80;;;;;;5065647;28;20245;-42
2022/08/14 08:43:44;;;;;;;3.00;2.80;;;26.40;99.40;;;;;;5075240;28;20234;-41
2022/08/14 08:46:14;;;;;;;3.05;2.75;;;26.50;99.30;;;;;;5059144;28;20206;-51
2022/08/14 08:48:45;;;;;;;2.67;2.58;;;26.60;98.90;;;;;;5073796;28;20201;-41
2022/08/14 08:51:21;;;;;;;6.53;3.13;;;26.70;98.50;;;;;;5066417;28;20190;-44
2022/08/14 08:53:56;;;;;;;4.93;2.80;;;26.80;98.40;;;;;;5065997;28;20233;-42
2022/08/14 08:56:36;;;;;;;4.25;2.75;;;26.90;98.20;;;;;;5070769;28;20191;-43
2022/08/14 08:59:03;;;;;;;4.45;2.80;;;27.00;97.80;;;;;;5064316;28;20580;-43
2022/08/14 09:01:31;;;;;;;3.03;2.70;;;27.00;97.60;;;;;;5058408;28;20205;-44
2022/08/14 09:04:04;;;;;;;6.20;3.50;;;27.10;97.20;;;;;;5069536;28;20197;-42
2022/08/14 09:06:33;;;;;;;3.60;3.30;;;27.30;97.00;;;;;;5074704;28;20205;-46
2022/08/14 09:08:59;;;;;;;3.45;3.00;;;27.30;97.00;;;;;;5065021;28;20272;-45
2022/08/14 09:11:26;;;;;;;4.88;3.30;;;27.40;96.70;;;;;;5064721;28;20193;-41
2022/08/14 09:13:54;;;;;;;3.70;3.30;;;27.40;96.50;;;;;;5082548;28;20209;-46
2022/08/14 09:16:24;;;;;;;5.00;3.40;;;27.50;95.90;;;;;;5062195;28;20290;-44
2022/08/14 09:18:51;;;;;;;4.38;3.97;;;27.60;95.40;;;;;;5075150;28;20214;-43
2022/08/14 09:21:19;;;;;;;5.72;3.78;;;27.60;94.70;;;;;;5062810;28;20221;-43
2022/08/14 09:23:46;;;;;;;7.60;3.40;;;27.70;94.60;;;;;;5062350;28;20203;-42
2022/08/14 09:26:13;;;;;;;3.97;3.55;;;27.70;94.50;;;;;;5081959;28;20217;-42
2022/08/14 09:28:41;;;;;;;4.00;3.67;;;27.70;94.50;;;;;;5077242;28;20598;-45
2022/08/14 09:31:09;;;;;;;4.55;3.88;;;27.80;93.90;;;;;;5075736;28;20525;-43
2022/08/14 09:33:52;;;;;;;6.38;3.97;;;27.90;93.50;;;;;;5059197;28;20256;-44
2022/08/14 09:36:31;;;;;;;5.22;3.70;;;27.90;93.40;;;;;;5076416;28;20208;-41
2022/08/14 09:39:06;;;;;;;6.65;3.70;;;27.90;93.40;;;;;;5062876;28;20300;-44
2022/08/14 09:41:49;;;;;;;5.85;3.42;;;27.90;93.30;;;;;;5066665;28;20702;-42
2022/08/14 09:44:29;;;;;;;3.97;3.40;;;28.00;93.70;;;;;;5061147;28;20264;-41
2022/08/14 09:46:58;;;;;;;4.18;3.47;;;27.90;93.80;;;;;;5075316;28;20229;-43
2022/08/14 09:49:32;;;;;;;3.47;3.28;;;27.90;93.90;;;;;;5058888;28;20309;-45
2022/08/14 09:52:05;;;;;;;4.10;3.53;;;27.90;94.10;;;;;;5075335;28;20190;-42
2022/08/14 09:54:38;;;;;;;4.82;3.28;;;27.90;94.10;;;;;;5078334;28;20203;-41
2022/08/14 09:57:09;;;;;;;3.63;3.42;;;27.90;94.20;;;;;;5069805;28;20609;-43
2022/08/14 09:59:44;;;;;;;4.53;3.90;;;28.00;93.90;;;;;;5066606;28;20218;-44
2022/08/14 10:02:29;;;;;;;4.07;3.72;;;28.10;93.80;;;;;;5071099;28;20213;-42
2022/08/14 10:05:01;;;;;;;3.75;3.20;;;28.20;93.70;;;;;;5059618;28;20210;-47
2022/08/14 10:07:33;;;;;;;4.95;3.70;;;28.20;93.60;;;;;;5068894;28;20206;-43
2022/08/14 10:10:00;;;;;;;4.05;3.67;;;28.20;93.60;;;;;;5065551;28;20222;-48
2022/08/14 10:12:42;;;;;;;3.90;3.58;;;28.20;93.60;;;;;;5063216;28;20296;-42
2022/08/14 10:15:16;;;;;;;4.53;3.53;;;28.20;93.40;;;;;;5058439;28;20839;-47
2022/08/14 10:17:45;;;;;;;4.32;3.90;;;28.20;93.40;;;;;;5069230;28;20566;-44
2022/08/14 10:20:12;;;;;;;6.00;3.65;;;28.20;93.00;;;;;;5051668;28;20233;-48
2022/08/14 10:22:39;;;;;;;4.72;3.85;;;28.20;93.10;;;;;;5075733;28;20214;-47
2022/08/14 10:25:13;;;;;;;4.05;3.75;;;28.20;92.90;;;;;;5068115;28;20202;-42
2022/08/14 10:27:41;;;;;;;5.88;3.97;;;28.20;93.00;;;;;;5070090;28;20681;-43
2022/08/14 10:30:13;;;;;;;4.10;3.65;;;28.30;92.90;;;;;;5070686;28;20585;-49
2022/08/14 10:32:45;;;;;;;4.03;3.60;;;28.30;92.70;;;;;;5073738;28;20202;-46
2022/08/14 10:35:13;;;;;;;4.18;3.72;;;28.40;92.70;;;;;;5057326;28;20198;-44
2022/08/14 10:37:42;;;;;;;4.53;3.92;;;28.70;92.20;;;;;;5076539;28;20788;-44
2022/08/14 10:40:09;;;;;;;4.30;3.90;;;28.80;92.10;;;;;;5070527;28;20280;-44
2022/08/14 10:42:38;;;;;;;4.90;4.40;;;29.10;91.90;;;;;;5058184;28;20300;-45
2022/08/14 10:45:19;;;;;;;4.30;3.90;;;29.30;91.60;;;;;;5065301;28;20244;-42
2022/08/14 10:47:48;;;;;;;4.50;4.10;;;29.40;91.10;;;;;;5051243;28;20271;-43
2022/08/14 10:50:16;;;;;;;8.40;4.07;;;29.30;90.70;;;;;;5055829;28;20222;-43
2022/08/14 10:52:45;;;;;;;6.53;4.22;;;29.20;90.70;;;;;;5070584;28;20273;-44
2022/08/14 10:55:13;;;;;;;5.97;4.68;;;29.20;90.60;;;;;;5069414;28;20247;-42
2022/08/14 10:57:51;;;;;;;5.70;3.90;;;29.10;90.60;;;;;;5066728;28;20642;-44
2022/08/14 11:00:20;;;;;;;8.00;4.45;;;29.00;90.70;;;;;;5057801;28;20258;-44
2022/08/14 11:02:57;;;;;;;5.40;3.88;;;28.90;91.00;;;;;;5061151;28;20616;-45
2022/08/14 11:05:26;;;;;;;4.85;4.07;;;28.80;91.20;;;;;;5061149;28;20186;-43
2022/08/14 11:07:59;;;;;;;6.03;4.22;;;28.70;91.30;;;;;;5059505;28;20297;-43
2022/08/14 11:10:39;;;;;;;6.30;4.05;;;28.60;91.60;;;;;;5072118;28;20210;-42
2022/08/14 11:13:07;;;;;;;3.80;3.50;;;28.60;91.90;;;;;;5065328;28;20213;-42
2022/08/14 11:15:35;;;;;;;6.88;4.07;;;28.50;91.80;;;;;;5069752;28;20279;-44
2022/08/14 11:18:04;;;;;;;4.88;3.80;;;28.50;92.00;;;;;;5062875;28;20535;-42
2022/08/14 11:20:31;;;;;;;4.63;4.15;;;28.40;91.90;;;;;;5070459;28;20229;-42
2022/08/14 11:23:00;;;;;;;4.45;4.10;;;28.40;92.10;;;;;;5054237;28;20214;-43
2022/08/14 11:25:30;;;;;;;4.28;3.88;;;28.40;91.90;;;;;;5073063;28;20547;-44
2022/08/14 11:27:59;;;;;;;6.07;4.07;;;28.40;91.70;;;;;;5061310;28;20242;-44
2022/08/14 11:30:28;;;;;;;6.50;3.83;;;28.40;91.80;;;;;;5061113;28;20226;-46
2022/08/14 11:32:56;;;;;;;4.05;3.75;;;28.50;91.90;;;;;;5064111;28;20197;-43
2022/08/14 11:35:25;;;;;;;3.88;3.63;;;28.50;91.90;;;;;;5065462;28;20867;-43
2022/08/14 11:37:54;;;;;;;3.85;3.42;;;28.50;92.10;;;;;;5059302;28;20202;-43
2022/08/14 11:40:22;;;;;;;4.15;3.85;;;28.50;92.10;;;;;;5067644;28;20214;-43
2022/08/14 11:42:54;;;;;;;5.43;4.40;;;28.50;91.90;;;;;;5070523;28;20238;-46
2022/08/14 11:45:23;;;;;;;4.82;4.35;;;28.40;92.00;;;;;;5059170;28;20244;-43
2022/08/14 11:47:50;;;;;;;4.72;4.30;;;28.40;91.70;;;;;;5072335;28;20225;-43
2022/08/14 11:50:19;;;;;;;4.28;3.90;;;28.50;91.80;;;;;;5070378;28;20228;-42
2022/08/14 11:52:48;;;;;;;4.45;4.05;;;28.50;91.80;;;;;;5069399;28;20569;-42
2022/08/14 11:55:15;;;;;;;5.15;4.18;;;28.50;92.00;;;;;;5061963;28;20208;-43
2022/08/14 11:57:43;;;;;;;5.25;4.68;;;28.50;91.80;;;;;;5072349;28;20197;-42
2022/08/14 12:00:12;;;;;;;4.82;4.30;;;28.40;91.80;;;;;;5061364;28;20583;-42
2022/08/14 12:02:50;;;;;;;4.43;4.13;;;28.40;91.60;;;;;;5078301;28;20228;-44
2022/08/14 12:05:30;;;;;;;4.15;3.88;;;28.40;91.70;;;;;;5061097;28;20189;-44
2022/08/14 12:07:58;;;;;;;10.88;5.43;;;28.50;91.60;;;;;;5066215;28;20202;-44
2022/08/14 12:10:25;;;;;;;9.35;4.72;;;28.40;91.60;;;;;;5047501;28;20235;-43
2022/08/14 12:12:55;;;;;;;4.80;4.40;;;28.40;91.70;;;;;;5074359;28;20663;-42
2022/08/14 12:15:30;;;;;;;5.40;4.50;;;28.40;92.00;;;;;;5064527;28;20663;-47
2022/08/14 12:17:59;;;;;;;8.50;4.90;;;28.40;91.90;;;;;;5071338;28;20209;-42
2022/08/14 12:20:32;;;;;;;9.30;4.90;;;28.50;91.90;;;;;;5072191;28;20257;-46
2022/08/14 12:23:03;;;;;;;6.30;4.40;;;28.50;91.80;;;;;;5074296;28;20210;-41
2022/08/14 12:25:30;;;;;;;14.15;5.82;;;28.50;91.90;;;;;;5053345;28;20960;-42
2022/08/14 12:28:03;;;;;;;5.45;4.75;;;28.50;91.80;;;;;;5070714;28;20198;-42
2022/08/14 12:30:34;;;;;;;8.10;4.47;;;28.40;91.50;;;;;;5058768;28;20229;-42
2022/08/14 12:33:03;;;;;;;10.20;4.80;;;28.50;91.80;;;;;;5072748;28;20197;-42
2022/08/14 12:35:38;;;;;;;4.70;4.30;;;28.50;91.80;;;;;;5075785;28;20935;-42
2022/08/14 12:38:06;;;;;;;82.03;11.13;;;28.50;91.70;;;;;;5072417;28;20196;-46
2022/08/14 12:40:32;;;;;;;14.23;5.45;;;28.50;91.90;;;;;;5054232;28;20218;-42
2022/08/14 12:43:02;;;;;;;12.52;5.57;;;28.60;91.80;;;;;;5071605;28;20218;-43
2022/08/14 12:45:33;;;;;;;5.00;4.60;;;28.70;91.60;;;;;;5065934;28;20206;-43
2022/08/14 12:48:02;;;;;;;5.63;5.03;;;28.80;91.30;;;;;;5061588;28;20203;-43
2022/08/14 12:50:37;;;;;;;4.93;4.60;;;28.80;91.20;;;;;;5069902;28;20224;-44
2022/08/14 12:53:03;;;;;;;8.75;4.55;;;29.00;91.10;;;;;;5066376;28;20593;-41
2022/08/14 12:55:33;;;;;;;5.63;4.47;;;29.10;91.00;;;;;;5053376;28;20280;-45
2022/08/14 12:58:02;;;;;;;5.28;4.65;;;29.10;91.00;;;;;;5079489;28;20561;-42
2022/08/14 13:00:29;;;;;;;6.88;5.05;;;29.30;90.70;;;;;;5063958;28;20218;-45
2022/08/14 13:02:56;;;;;;;5.15;4.70;;;29.70;90.40;;;;;;5055833;28;20221;-43
2022/08/14 13:05:24;;;;;;;6.18;4.88;;;30.00;90.20;;;;;;5067365;28;20206;-46
2022/08/14 13:07:52;;;;;;;4.80;4.50;;;30.50;88.00;;;;;;5072961;28;20728;-42
2022/08/14 13:10:21;;;;;;;6.30;4.88;;;30.80;87.10;;;;;;5060554;28;20232;-42
2022/08/14 13:12:50;;;;;;;5.60;4.90;;;;;;;;;;5060504;28;20202;-41